sensor_id;sensor_type;location;lat;lon;timestamp;temperature;humidity
17333;DHT22;8784;50.94667800;7.08448400;2022-12-07T00:02:12;7.10;99.90
17333;DHT22;8784;50.94667800;7.08448400;2022-12-07T00:04:39;7.50;99.90
17333;DHT22;8784;50.94667800;7.08448400;2022-12-07T00:07:06;7.10;99.90
17333;DHT22;8784;50.94667800;7.08448400;2022-12-07T00:09:34;7.10;99.90
17333;DHT22;8784;50.94667800;7.08448400;2022-12-07T00:12:01;7.00;99.90
17333;DHT22;8784;50.94667800;7.08448400;2022-12-07T00:14:28;7.10;99.90
17333;DHT22;8784;50.94667800;7.08448400;2022-12-07T00:16:55;7.10;99.90
17333;DHT22;8784;50.94667800;7.08448400;2022-12-07T00:19:22;7.10;99.90
17333;DHT22;8784;50.94667800;7.08448400;2022-12-07T00:21:49;7.10;99.90
17333;DHT22;8784;50.94667800;7.08448400;2022-12-07T00:24:16;7.10;99.90
17333;DHT22;8784;50.94667800;7.08448400;2022-12-07T00:26:45;7.30;99.90
17333;DHT22;8784;50.94667800;7.08448400;2022-12-07T00:29:14;7.20;99.90
17333;DHT22;8784;50.94667800;7.08448400;2022-12-07T00:31:41;7.20;99.90
17333;DHT22;8784;50.94667800;7.08448400;2022-12-07T00:34:14;7.10;99.90
17333;DHT22;8784;50.94667800;7.08448400;2022-12-07T00:36:41;7.10;99.90
17333;DHT22;8784;50.94667800;7.08448400;2022-12-07T00:39:08;7.20;99.90
17333;DHT22;8784;50.94667800;7.08448400;2022-12-07T00:41:35;7.20;99.90
17333;DHT22;8784;50.94667800;7.08448400;2022-12-07T00:44:03;7.20;99.90
17333;DHT22;8784;50.94667800;7.08448400;2022-12-07T00:46:30;7.20;99.90
17333;DHT22;8784;50.94667800;7.08448400;2022-12-07T00:48:57;7.30;99.90
17333;DHT22;8784;50.94667800;7.08448400;2022-12-07T00:51:25;7.30;99.90
17333;DHT22;8784;50.94667800;7.08448400;2022-12-07T00:53:52;7.30;99.90
17333;DHT22;8784;50.94667800;7.08448400;2022-12-07T00:56:21;7.30;99.90
17333;DHT22;8784;50.94667800;7.08448400;2022-12-07T00:58:52;7.30;99.90
17333;DHT22;8784;50.94667800;7.08448400;2022-12-07T01:01:21;7.30;99.90
17333;DHT22;8784;50.94667800;7.08448400;2022-12-07T01:03:48;7.30;99.90
17333;DHT22;8784;50.94667800;7.08448400;2022-12-07T01:06:16;7.30;99.90
17333;DHT22;8784;50.94667800;7.08448400;2022-12-07T01:08:43;7.40;99.90
17333;DHT22;8784;50.94667800;7.08448400;2022-12-07T01:11:13;7.40;99.90
17333;DHT22;8784;50.94667800;7.08448400;2022-12-07T01:13:41;7.40;99.90
17333;DHT22;8784;50.94667800;7.08448400;2022-12-07T01:16:10;7.20;99.90
17333;DHT22;8784;50.94667800;7.08448400;2022-12-07T01:18:39;7.30;99.90
17333;DHT22;8784;50.94667800;7.08448400;2022-12-07T01:21:09;7.30;99.90
17333;DHT22;8784;50.94667800;7.08448400;2022-12-07T01:23:36;7.30;99.90
17333;DHT22;8784;50.94667800;7.08448400;2022-12-07T01:26:06;7.40;99.90
17333;DHT22;8784;50.94667800;7.08448400;2022-12-07T01:28:34;7.40;99.90
17333;DHT22;8784;50.94667800;7.08448400;2022-12-07T01:31:02;7.40;99.90
17333;DHT22;8784;50.94667800;7.08448400;2022-12-07T01:33:31;7.30;99.90
17333;DHT22;8784;50.94667800;7.08448400;2022-12-07T01:36:03;7.30;99.90
17333;DHT22;8784;50.94667800;7.08448400;2022-12-07T01:38:30;7.30;99.90
17333;DHT22;8784;50.94667800;7.08448400;2022-12-07T01:40:58;7.30;99.90
17333;DHT22;8784;50.94667800;7.08448400;2022-12-07T01:43:28;7.30;99.90
17333;DHT22;8784;50.94667800;7.08448400;2022-12-07T01:45:55;7.30;99.90
17333;DHT22;8784;50.94667800;7.08448400;2022-12-07T01:48:26;7.30;99.90
17333;DHT22;8784;50.94667800;7.08448400;2022-12-07T01:50:56;7.40;99.90
17333;DHT22;8784;50.94667800;7.08448400;2022-12-07T01:53:27;7.40;99.90
17333;DHT22;8784;50.94667800;7.08448400;2022-12-07T01:55:56;7.40;99.90
17333;DHT22;8784;50.94667800;7.08448400;2022-12-07T01:58:25;7.40;99.90
17333;DHT22;8784;50.94667800;7.08448400;2022-12-07T02:00:52;7.60;99.90
17333;DHT22;8784;50.94667800;7.08448400;2022-12-07T02:03:23;7.40;99.90
17333;DHT22;8784;50.94667800;7.08448400;2022-12-07T02:05:51;7.30;99.90
17333;DHT22;8784;50.94667800;7.08448400;2022-12-07T02:08:20;7.30;99.90
17333;DHT22;8784;50.94667800;7.08448400;2022-12-07T02:10:48;8.00;99.90
17333;DHT22;8784;50.94667800;7.08448400;2022-12-07T02:13:16;7.30;99.90
17333;DHT22;8784;50.94667800;7.08448400;2022-12-07T02:15:57;7.20;99.90
17333;DHT22;8784;50.94667800;7.08448400;2022-12-07T02:18:33;7.20;99.90
17333;DHT22;8784;50.94667800;7.08448400;2022-12-07T02:21:07;7.30;99.90
17333;DHT22;8784;50.94667800;7.08448400;2022-12-07T02:24:16;7.20;99.90
17333;DHT22;8784;50.94667800;7.08448400;2022-12-07T02:27:05;7.10;99.90
17333;DHT22;8784;50.94667800;7.08448400;2022-12-07T02:29:40;7.20;99.90
17333;DHT22;8784;50.94667800;7.08448400;2022-12-07T02:32:13;7.20;99.90
17333;DHT22;8784;50.94667800;7.08448400;2022-12-07T02:34:47;7.30;99.90
17333;DHT22;8784;50.94667800;7.08448400;2022-12-07T02:37:26;7.30;99.90
17333;DHT22;8784;50.94667800;7.08448400;2022-12-07T02:40:00;7.20;99.90
17333;DHT22;8784;50.94667800;7.08448400;2022-12-07T02:42:33;7.20;99.90
17333;DHT22;8784;50.94667800;7.08448400;2022-12-07T02:45:05;7.20;99.90
17333;DHT22;8784;50.94667800;7.08448400;2022-12-07T02:47:34;7.20;99.90
17333;DHT22;8784;50.94667800;7.08448400;2022-12-07T02:50:03;7.10;99.90
17333;DHT22;8784;50.94667800;7.08448400;2022-12-07T02:52:31;7.10;99.90
17333;DHT22;8784;50.94667800;7.08448400;2022-12-07T02:54:58;7.10;99.90
17333;DHT22;8784;50.94667800;7.08448400;2022-12-07T02:57:42;7.50;99.90
17333;DHT22;8784;50.94667800;7.08448400;2022-12-07T03:00:15;7.10;99.90
17333;DHT22;8784;50.94667800;7.08448400;2022-12-07T03:02:50;7.20;99.90
17333;DHT22;8784;50.94667800;7.08448400;2022-12-07T03:05:38;7.20;99.90
17333;DHT22;8784;50.94667800;7.08448400;2022-12-07T03:08:13;7.20;99.90
17333;DHT22;8784;50.94667800;7.08448400;2022-12-07T03:10:50;7.30;99.90
17333;DHT22;8784;50.94667800;7.08448400;2022-12-07T03:13:23;7.30;99.90
17333;DHT22;8784;50.94667800;7.08448400;2022-12-07T03:15:57;7.40;99.90
17333;DHT22;8784;50.94667800;7.08448400;2022-12-07T03:18:30;7.30;99.90
17333;DHT22;8784;50.94667800;7.08448400;2022-12-07T03:21:01;7.30;99.90
17333;DHT22;8784;50.94667800;7.08448400;2022-12-07T03:23:31;7.30;99.90
17333;DHT22;8784;50.94667800;7.08448400;2022-12-07T03:26:00;7.30;99.90
17333;DHT22;8784;50.94667800;7.08448400;2022-12-07T03:28:31;7.40;99.90
17333;DHT22;8784;50.94667800;7.08448400;2022-12-07T03:31:03;7.30;99.90
17333;DHT22;8784;50.94667800;7.08448400;2022-12-07T03:33:35;7.40;99.90
17333;DHT22;8784;50.94667800;7.08448400;2022-12-07T03:36:07;7.40;99.90
17333;DHT22;8784;50.94667800;7.08448400;2022-12-07T03:38:38;7.40;99.90
17333;DHT22;8784;50.94667800;7.08448400;2022-12-07T03:41:08;7.40;99.90
17333;DHT22;8784;50.94667800;7.08448400;2022-12-07T03:43:37;7.40;99.90
17333;DHT22;8784;50.94667800;7.08448400;2022-12-07T03:46:17;7.40;99.90
17333;DHT22;8784;50.94667800;7.08448400;2022-12-07T03:48:54;7.40;99.90
17333;DHT22;8784;50.94667800;7.08448400;2022-12-07T03:51:30;7.50;99.90
17333;DHT22;8784;50.94667800;7.08448400;2022-12-07T03:54:01;7.40;99.90
17333;DHT22;8784;50.94667800;7.08448400;2022-12-07T03:56:29;7.40;99.90
17333;DHT22;8784;50.94667800;7.08448400;2022-12-07T03:58:56;7.40;99.90
17333;DHT22;8784;50.94667800;7.08448400;2022-12-07T04:01:25;7.40;99.90
17333;DHT22;8784;50.94667800;7.08448400;2022-12-07T04:03:52;7.40;99.90
17333;DHT22;8784;50.94667800;7.08448400;2022-12-07T04:06:19;7.40;99.90
17333;DHT22;8784;50.94667800;7.08448400;2022-12-07T04:08:46;7.40;99.90
17333;DHT22;8784;50.94667800;7.08448400;2022-12-07T04:11:13;7.40;99.90
17333;DHT22;8784;50.94667800;7.08448400;2022-12-07T04:13:39;7.40;99.90
17333;DHT22;8784;50.94667800;7.08448400;2022-12-07T04:16:25;7.40;99.90
17333;DHT22;8784;50.94667800;7.08448400;2022-12-07T04:18:52;7.40;99.90
17333;DHT22;8784;50.94667800;7.08448400;2022-12-07T04:21:19;7.30;99.90
17333;DHT22;8784;50.94667800;7.08448400;2022-12-07T04:23:46;7.30;99.90
17333;DHT22;8784;50.94667800;7.08448400;2022-12-07T04:26:13;7.20;99.90
17333;DHT22;8784;50.94667800;7.08448400;2022-12-07T04:28:40;7.30;99.90
17333;DHT22;8784;50.94667800;7.08448400;2022-12-07T04:31:07;7.20;99.90
17333;DHT22;8784;50.94667800;7.08448400;2022-12-07T04:33:36;7.10;99.90
17333;DHT22;8784;50.94667800;7.08448400;2022-12-07T04:36:04;7.10;99.90
17333;DHT22;8784;50.94667800;7.08448400;2022-12-07T04:38:31;7.10;99.90
17333;DHT22;8784;50.94667800;7.08448400;2022-12-07T04:40:58;7.10;99.90
17333;DHT22;8784;50.94667800;7.08448400;2022-12-07T04:43:24;7.10;99.90
17333;DHT22;8784;50.94667800;7.08448400;2022-12-07T04:45:51;7.10;99.90
17333;DHT22;8784;50.94667800;7.08448400;2022-12-07T04:48:18;7.10;99.90
17333;DHT22;8784;50.94667800;7.08448400;2022-12-07T04:50:49;7.10;99.90
17333;DHT22;8784;50.94667800;7.08448400;2022-12-07T04:53:16;8.10;99.90
17333;DHT22;8784;50.94667800;7.08448400;2022-12-07T04:55:43;7.10;99.90
17333;DHT22;8784;50.94667800;7.08448400;2022-12-07T04:58:10;7.80;99.90
17333;DHT22;8784;50.94667800;7.08448400;2022-12-07T05:00:38;7.10;99.90
17333;DHT22;8784;50.94667800;7.08448400;2022-12-07T05:03:05;7.10;99.90
17333;DHT22;8784;50.94667800;7.08448400;2022-12-07T05:05:32;7.20;99.90
17333;DHT22;8784;50.94667800;7.08448400;2022-12-07T05:08:00;7.20;99.90
17333;DHT22;8784;50.94667800;7.08448400;2022-12-07T05:10:27;7.20;99.90
17333;DHT22;8784;50.94667800;7.08448400;2022-12-07T05:12:54;7.20;99.90
17333;DHT22;8784;50.94667800;7.08448400;2022-12-07T05:15:23;7.30;99.90
17333;DHT22;8784;50.94667800;7.08448400;2022-12-07T05:17:50;7.20;99.90
17333;DHT22;8784;50.94667800;7.08448400;2022-12-07T05:20:18;7.30;99.90
17333;DHT22;8784;50.94667800;7.08448400;2022-12-07T05:22:45;7.30;99.90
17333;DHT22;8784;50.94667800;7.08448400;2022-12-07T05:25:13;7.30;99.90
17333;DHT22;8784;50.94667800;7.08448400;2022-12-07T05:27:40;7.30;99.90
17333;DHT22;8784;50.94667800;7.08448400;2022-12-07T05:30:10;7.30;99.90
17333;DHT22;8784;50.94667800;7.08448400;2022-12-07T05:32:37;7.20;99.90
17333;DHT22;8784;50.94667800;7.08448400;2022-12-07T05:35:05;7.30;99.90
17333;DHT22;8784;50.94667800;7.08448400;2022-12-07T05:37:32;7.20;99.90
17333;DHT22;8784;50.94667800;7.08448400;2022-12-07T05:39:59;7.30;99.90
17333;DHT22;8784;50.94667800;7.08448400;2022-12-07T05:42:28;7.30;99.90
17333;DHT22;8784;50.94667800;7.08448400;2022-12-07T05:44:53;7.20;99.90
17333;DHT22;8784;50.94667800;7.08448400;2022-12-07T05:47:21;7.30;99.90
17333;DHT22;8784;50.94667800;7.08448400;2022-12-07T05:49:48;7.30;99.90
17333;DHT22;8784;50.94667800;7.08448400;2022-12-07T05:52:15;7.30;99.90
17333;DHT22;8784;50.94667800;7.08448400;2022-12-07T05:54:42;7.30;99.90
17333;DHT22;8784;50.94667800;7.08448400;2022-12-07T05:57:09;7.30;99.90
17333;DHT22;8784;50.94667800;7.08448400;2022-12-07T05:59:37;7.30;99.90
17333;DHT22;8784;50.94667800;7.08448400;2022-12-07T06:02:05;7.30;99.90
17333;DHT22;8784;50.94667800;7.08448400;2022-12-07T06:04:34;7.30;99.90
17333;DHT22;8784;50.94667800;7.08448400;2022-12-07T06:07:01;7.30;99.90
17333;DHT22;8784;50.94667800;7.08448400;2022-12-07T06:09:29;7.30;99.90
17333;DHT22;8784;50.94667800;7.08448400;2022-12-07T06:11:56;7.30;99.90
17333;DHT22;8784;50.94667800;7.08448400;2022-12-07T06:14:43;7.30;99.90
17333;DHT22;8784;50.94667800;7.08448400;2022-12-07T06:17:11;7.30;99.90
17333;DHT22;8784;50.94667800;7.08448400;2022-12-07T06:19:39;7.30;99.90
17333;DHT22;8784;50.94667800;7.08448400;2022-12-07T06:22:06;7.20;99.90
17333;DHT22;8784;50.94667800;7.08448400;2022-12-07T06:24:35;7.20;99.90
17333;DHT22;8784;50.94667800;7.08448400;2022-12-07T06:27:02;7.10;99.90
17333;DHT22;8784;50.94667800;7.08448400;2022-12-07T06:29:30;7.20;99.90
17333;DHT22;8784;50.94667800;7.08448400;2022-12-07T06:31:58;7.20;99.90
17333;DHT22;8784;50.94667800;7.08448400;2022-12-07T06:34:26;7.20;99.90
17333;DHT22;8784;50.94667800;7.08448400;2022-12-07T06:36:53;7.20;99.90
17333;DHT22;8784;50.94667800;7.08448400;2022-12-07T06:39:22;7.10;99.90
17333;DHT22;8784;50.94667800;7.08448400;2022-12-07T06:41:49;7.10;99.90
17333;DHT22;8784;50.94667800;7.08448400;2022-12-07T06:44:17;7.10;99.90
17333;DHT22;8784;50.94667800;7.08448400;2022-12-07T06:46:44;7.30;99.90
17333;DHT22;8784;50.94667800;7.08448400;2022-12-07T06:49:12;7.10;99.90
17333;DHT22;8784;50.94667800;7.08448400;2022-12-07T06:51:39;7.10;99.90
17333;DHT22;8784;50.94667800;7.08448400;2022-12-07T06:54:07;7.20;99.90
17333;DHT22;8784;50.94667800;7.08448400;2022-12-07T06:56:34;7.20;99.90
17333;DHT22;8784;50.94667800;7.08448400;2022-12-07T06:59:02;7.20;99.90
17333;DHT22;8784;50.94667800;7.08448400;2022-12-07T07:01:28;7.20;99.90
17333;DHT22;8784;50.94667800;7.08448400;2022-12-07T07:03:57;7.20;99.90
17333;DHT22;8784;50.94667800;7.08448400;2022-12-07T07:06:26;7.20;99.90
17333;DHT22;8784;50.94667800;7.08448400;2022-12-07T07:08:53;7.60;99.90
17333;DHT22;8784;50.94667800;7.08448400;2022-12-07T07:11:20;7.20;99.90
17333;DHT22;8784;50.94667800;7.08448400;2022-12-07T07:13:47;7.20;99.90
17333;DHT22;8784;50.94667800;7.08448400;2022-12-07T07:16:14;7.10;99.90
17333;DHT22;8784;50.94667800;7.08448400;2022-12-07T07:18:41;7.00;99.90
17333;DHT22;8784;50.94667800;7.08448400;2022-12-07T07:21:07;7.00;99.90
17333;DHT22;8784;50.94667800;7.08448400;2022-12-07T07:23:36;6.90;99.90
17333;DHT22;8784;50.94667800;7.08448400;2022-12-07T07:26:03;7.00;99.90
17333;DHT22;8784;50.94667800;7.08448400;2022-12-07T07:28:30;6.90;99.90
17333;DHT22;8784;50.94667800;7.08448400;2022-12-07T07:30:57;6.90;99.90
17333;DHT22;8784;50.94667800;7.08448400;2022-12-07T07:33:24;6.90;99.90
17333;DHT22;8784;50.94667800;7.08448400;2022-12-07T07:35:51;6.90;99.90
17333;DHT22;8784;50.94667800;7.08448400;2022-12-07T07:38:18;6.90;99.90
17333;DHT22;8784;50.94667800;7.08448400;2022-12-07T07:40:46;7.00;99.90
17333;DHT22;8784;50.94667800;7.08448400;2022-12-07T07:43:13;7.00;99.90
17333;DHT22;8784;50.94667800;7.08448400;2022-12-07T07:45:40;7.00;99.90
17333;DHT22;8784;50.94667800;7.08448400;2022-12-07T07:48:07;6.90;99.90
17333;DHT22;8784;50.94667800;7.08448400;2022-12-07T07:50:34;6.90;99.90
17333;DHT22;8784;50.94667800;7.08448400;2022-12-07T07:53:01;6.90;99.90
17333;DHT22;8784;50.94667800;7.08448400;2022-12-07T07:55:29;6.80;99.90
17333;DHT22;8784;50.94667800;7.08448400;2022-12-07T07:57:58;6.90;99.90
17333;DHT22;8784;50.94667800;7.08448400;2022-12-07T08:00:25;6.90;99.90
17333;DHT22;8784;50.94667800;7.08448400;2022-12-07T08:02:52;7.00;99.90
17333;DHT22;8784;50.94667800;7.08448400;2022-12-07T08:05:19;7.20;99.90
17333;DHT22;8784;50.94667800;7.08448400;2022-12-07T08:07:46;7.30;99.90
17333;DHT22;8784;50.94667800;7.08448400;2022-12-07T08:10:13;7.30;99.90
17333;DHT22;8784;50.94667800;7.08448400;2022-12-07T08:12:42;7.40;99.90
17333;DHT22;8784;50.94667800;7.08448400;2022-12-07T08:15:25;7.50;99.90
17333;DHT22;8784;50.94667800;7.08448400;2022-12-07T08:17:53;7.50;99.90
17333;DHT22;8784;50.94667800;7.08448400;2022-12-07T08:20:20;7.50;99.90
17333;DHT22;8784;50.94667800;7.08448400;2022-12-07T08:22:47;7.50;99.90
17333;DHT22;8784;50.94667800;7.08448400;2022-12-07T08:25:14;7.50;99.90
17333;DHT22;8784;50.94667800;7.08448400;2022-12-07T08:27:41;7.40;99.90
17333;DHT22;8784;50.94667800;7.08448400;2022-12-07T08:30:08;7.40;99.90
17333;DHT22;8784;50.94667800;7.08448400;2022-12-07T08:32:37;7.50;99.90
17333;DHT22;8784;50.94667800;7.08448400;2022-12-07T08:35:04;7.50;99.90
17333;DHT22;8784;50.94667800;7.08448400;2022-12-07T08:37:31;7.60;99.90
17333;DHT22;8784;50.94667800;7.08448400;2022-12-07T08:39:58;7.60;99.90
17333;DHT22;8784;50.94667800;7.08448400;2022-12-07T08:42:25;7.60;99.90
17333;DHT22;8784;50.94667800;7.08448400;2022-12-07T08:44:55;7.50;99.90
17333;DHT22;8784;50.94667800;7.08448400;2022-12-07T08:47:23;7.60;99.90
17333;DHT22;8784;50.94667800;7.08448400;2022-12-07T08:49:53;7.60;99.90
17333;DHT22;8784;50.94667800;7.08448400;2022-12-07T08:52:20;7.60;99.90
17333;DHT22;8784;50.94667800;7.08448400;2022-12-07T08:54:47;7.60;99.90
17333;DHT22;8784;50.94667800;7.08448400;2022-12-07T08:57:14;7.70;99.90
17333;DHT22;8784;50.94667800;7.08448400;2022-12-07T08:59:41;7.80;99.90
17333;DHT22;8784;50.94667800;7.08448400;2022-12-07T09:02:08;7.80;99.90
17333;DHT22;8784;50.94667800;7.08448400;2022-12-07T09:04:35;7.90;99.90
17333;DHT22;8784;50.94667800;7.08448400;2022-12-07T09:07:03;8.00;99.90
17333;DHT22;8784;50.94667800;7.08448400;2022-12-07T09:09:30;7.90;99.90
17333;DHT22;8784;50.94667800;7.08448400;2022-12-07T09:11:57;8.00;99.90
17333;DHT22;8784;50.94667800;7.08448400;2022-12-07T09:14:24;8.00;99.90
17333;DHT22;8784;50.94667800;7.08448400;2022-12-07T09:16:51;8.00;99.90
17333;DHT22;8784;50.94667800;7.08448400;2022-12-07T09:19:18;8.50;99.90
17333;DHT22;8784;50.94667800;7.08448400;2022-12-07T09:21:45;8.00;99.90
17333;DHT22;8784;50.94667800;7.08448400;2022-12-07T09:24:14;8.00;99.90
17333;DHT22;8784;50.94667800;7.08448400;2022-12-07T09:26:41;8.10;99.90
17333;DHT22;8784;50.94667800;7.08448400;2022-12-07T09:29:08;8.10;99.90
17333;DHT22;8784;50.94667800;7.08448400;2022-12-07T09:31:36;8.20;99.90
17333;DHT22;8784;50.94667800;7.08448400;2022-12-07T09:34:03;8.30;99.90
17333;DHT22;8784;50.94667800;7.08448400;2022-12-07T09:36:31;8.40;99.90
17333;DHT22;8784;50.94667800;7.08448400;2022-12-07T09:38:59;8.40;99.90
17333;DHT22;8784;50.94667800;7.08448400;2022-12-07T09:41:30;8.40;99.90
17333;DHT22;8784;50.94667800;7.08448400;2022-12-07T09:44:03;8.30;99.90
17333;DHT22;8784;50.94667800;7.08448400;2022-12-07T09:46:35;8.30;99.90
17333;DHT22;8784;50.94667800;7.08448400;2022-12-07T09:49:03;8.30;99.90
17333;DHT22;8784;50.94667800;7.08448400;2022-12-07T09:51:31;8.30;99.90
17333;DHT22;8784;50.94667800;7.08448400;2022-12-07T09:53:58;8.40;99.90
17333;DHT22;8784;50.94667800;7.08448400;2022-12-07T09:56:29;8.40;99.90
17333;DHT22;8784;50.94667800;7.08448400;2022-12-07T09:59:00;8.50;99.90
17333;DHT22;8784;50.94667800;7.08448400;2022-12-07T10:01:29;8.60;99.90
17333;DHT22;8784;50.94667800;7.08448400;2022-12-07T10:04:02;8.70;99.90
17333;DHT22;8784;50.94667800;7.08448400;2022-12-07T10:06:33;8.70;99.90
17333;DHT22;8784;50.94667800;7.08448400;2022-12-07T10:09:07;8.90;99.90
17333;DHT22;8784;50.94667800;7.08448400;2022-12-07T10:12:03;8.90;99.90
17333;DHT22;8784;50.94667800;7.08448400;2022-12-07T10:14:33;9.00;99.90
17333;DHT22;8784;50.94667800;7.08448400;2022-12-07T10:17:01;9.10;99.90
17333;DHT22;8784;50.94667800;7.08448400;2022-12-07T10:19:29;9.10;99.90
17333;DHT22;8784;50.94667800;7.08448400;2022-12-07T10:22:03;9.20;99.90
17333;DHT22;8784;50.94667800;7.08448400;2022-12-07T10:24:30;9.10;99.90
17333;DHT22;8784;50.94667800;7.08448400;2022-12-07T10:27:00;9.10;99.90
17333;DHT22;8784;50.94667800;7.08448400;2022-12-07T10:29:30;9.00;99.90
17333;DHT22;8784;50.94667800;7.08448400;2022-12-07T10:31:59;9.00;99.90
17333;DHT22;8784;50.94667800;7.08448400;2022-12-07T10:34:28;9.10;99.90
17333;DHT22;8784;50.94667800;7.08448400;2022-12-07T10:37:13;8.90;99.90
17333;DHT22;8784;50.94667800;7.08448400;2022-12-07T10:39:42;8.80;99.90
17333;DHT22;8784;50.94667800;7.08448400;2022-12-07T10:42:18;8.70;99.90
17333;DHT22;8784;50.94667800;7.08448400;2022-12-07T10:44:46;8.80;99.90
17333;DHT22;8784;50.94667800;7.08448400;2022-12-07T10:47:32;8.80;99.90
17333;DHT22;8784;50.94667800;7.08448400;2022-12-07T10:50:31;8.80;99.90
17333;DHT22;8784;50.94667800;7.08448400;2022-12-07T10:53:24;8.90;99.90
17333;DHT22;8784;50.94667800;7.08448400;2022-12-07T10:56:07;8.90;99.90
17333;DHT22;8784;50.94667800;7.08448400;2022-12-07T10:58:49;8.90;99.90
17333;DHT22;8784;50.94667800;7.08448400;2022-12-07T11:01:24;8.90;99.90
17333;DHT22;8784;50.94667800;7.08448400;2022-12-07T11:04:08;8.90;99.90
17333;DHT22;8784;50.94667800;7.08448400;2022-12-07T11:06:45;8.80;99.90
17333;DHT22;8784;50.94667800;7.08448400;2022-12-07T11:12:13;8.90;99.90
17333;DHT22;8784;50.94667800;7.08448400;2022-12-07T11:14:53;9.00;99.90
17333;DHT22;8784;50.94667800;7.08448400;2022-12-07T11:17:28;8.80;99.90
17333;DHT22;8784;50.94667800;7.08448400;2022-12-07T11:20:08;8.80;99.90
17333;DHT22;8784;50.94667800;7.08448400;2022-12-07T11:22:46;8.70;99.90
17333;DHT22;8784;50.94667800;7.08448400;2022-12-07T11:25:23;8.70;99.90
17333;DHT22;8784;50.94667800;7.08448400;2022-12-07T11:28:06;8.80;99.90
17333;DHT22;8784;50.94667800;7.08448400;2022-12-07T11:30:40;8.90;99.90
17333;DHT22;8784;50.94667800;7.08448400;2022-12-07T11:33:17;9.10;99.90
17333;DHT22;8784;50.94667800;7.08448400;2022-12-07T11:35:52;9.20;99.90
17333;DHT22;8784;50.94667800;7.08448400;2022-12-07T11:38:23;9.50;99.90
17333;DHT22;8784;50.94667800;7.08448400;2022-12-07T11:40:57;9.40;99.90
17333;DHT22;8784;50.94667800;7.08448400;2022-12-07T11:43:52;9.30;99.90
17333;DHT22;8784;50.94667800;7.08448400;2022-12-07T11:46:24;9.30;99.90
17333;DHT22;8784;50.94667800;7.08448400;2022-12-07T11:48:57;9.20;99.90
17333;DHT22;8784;50.94667800;7.08448400;2022-12-07T11:51:25;9.40;99.90
17333;DHT22;8784;50.94667800;7.08448400;2022-12-07T11:53:58;9.40;99.90
17333;DHT22;8784;50.94667800;7.08448400;2022-12-07T11:56:27;9.30;99.90
17333;DHT22;8784;50.94667800;7.08448400;2022-12-07T11:58:59;9.30;99.90
17333;DHT22;8784;50.94667800;7.08448400;2022-12-07T12:01:42;9.40;99.90
17333;DHT22;8784;50.94667800;7.08448400;2022-12-07T12:04:25;9.50;99.90
17333;DHT22;8784;50.94667800;7.08448400;2022-12-07T12:06:54;9.60;99.90
17333;DHT22;8784;50.94667800;7.08448400;2022-12-07T12:09:25;9.60;99.90
17333;DHT22;8784;50.94667800;7.08448400;2022-12-07T12:12:07;9.60;99.90
17333;DHT22;8784;50.94667800;7.08448400;2022-12-07T12:14:44;9.60;99.90
17333;DHT22;8784;50.94667800;7.08448400;2022-12-07T12:17:39;9.60;99.90
17333;DHT22;8784;50.94667800;7.08448400;2022-12-07T12:20:19;9.60;99.90
17333;DHT22;8784;50.94667800;7.08448400;2022-12-07T12:22:52;9.60;99.90
17333;DHT22;8784;50.94667800;7.08448400;2022-12-07T12:25:23;9.70;99.90
17333;DHT22;8784;50.94667800;7.08448400;2022-12-07T12:27:52;9.70;99.90
17333;DHT22;8784;50.94667800;7.08448400;2022-12-07T12:30:34;9.70;99.90
17333;DHT22;8784;50.94667800;7.08448400;2022-12-07T12:33:05;9.60;99.90
17333;DHT22;8784;50.94667800;7.08448400;2022-12-07T12:35:34;9.50;99.90
17333;DHT22;8784;50.94667800;7.08448400;2022-12-07T12:38:27;9.40;99.90
17333;DHT22;8784;50.94667800;7.08448400;2022-12-07T12:40:54;9.30;99.90
17333;DHT22;8784;50.94667800;7.08448400;2022-12-07T12:43:48;9.30;99.90
17333;DHT22;8784;50.94667800;7.08448400;2022-12-07T12:46:48;9.40;99.90
17333;DHT22;8784;50.94667800;7.08448400;2022-12-07T12:49:37;9.40;99.90
17333;DHT22;8784;50.94667800;7.08448400;2022-12-07T12:55:17;9.30;99.90
17333;DHT22;8784;50.94667800;7.08448400;2022-12-07T12:57:47;9.20;99.90
17333;DHT22;8784;50.94667800;7.08448400;2022-12-07T13:00:21;9.20;99.90
17333;DHT22;8784;50.94667800;7.08448400;2022-12-07T13:02:50;9.10;99.90
17333;DHT22;8784;50.94667800;7.08448400;2022-12-07T13:05:21;9.00;99.90
17333;DHT22;8784;50.94667800;7.08448400;2022-12-07T13:07:55;9.00;99.90
17333;DHT22;8784;50.94667800;7.08448400;2022-12-07T13:10:40;8.90;99.90
17333;DHT22;8784;50.94667800;7.08448400;2022-12-07T13:13:31;9.00;99.90
17333;DHT22;8784;50.94667800;7.08448400;2022-12-07T13:16:36;9.00;99.90
17333;DHT22;8784;50.94667800;7.08448400;2022-12-07T13:22:38;9.10;99.90
17333;DHT22;8784;50.94667800;7.08448400;2022-12-07T13:25:08;9.10;99.90
17333;DHT22;8784;50.94667800;7.08448400;2022-12-07T13:27:37;9.10;99.90
17333;DHT22;8784;50.94667800;7.08448400;2022-12-07T13:30:13;9.10;99.90
17333;DHT22;8784;50.94667800;7.08448400;2022-12-07T13:32:41;9.10;99.90
17333;DHT22;8784;50.94667800;7.08448400;2022-12-07T13:35:33;9.00;99.90
17333;DHT22;8784;50.94667800;7.08448400;2022-12-07T13:38:05;9.00;99.90
17333;DHT22;8784;50.94667800;7.08448400;2022-12-07T13:40:32;9.00;99.90
17333;DHT22;8784;50.94667800;7.08448400;2022-12-07T13:43:01;8.90;99.90
17333;DHT22;8784;50.94667800;7.08448400;2022-12-07T13:45:30;9.00;99.90
17333;DHT22;8784;50.94667800;7.08448400;2022-12-07T13:48:21;8.90;99.90
17333;DHT22;8784;50.94667800;7.08448400;2022-12-07T13:50:59;8.90;99.90
17333;DHT22;8784;50.94667800;7.08448400;2022-12-07T13:53:28;8.90;99.90
17333;DHT22;8784;50.94667800;7.08448400;2022-12-07T13:55:56;9.20;99.90
17333;DHT22;8784;50.94667800;7.08448400;2022-12-07T13:58:24;9.00;99.90
17333;DHT22;8784;50.94667800;7.08448400;2022-12-07T14:00:52;8.90;99.90
17333;DHT22;8784;50.94667800;7.08448400;2022-12-07T14:03:27;8.90;99.90
17333;DHT22;8784;50.94667800;7.08448400;2022-12-07T14:06:23;8.90;99.90
17333;DHT22;8784;50.94667800;7.08448400;2022-12-07T14:09:08;8.80;99.90
17333;DHT22;8784;50.94667800;7.08448400;2022-12-07T14:11:35;8.80;99.90
17333;DHT22;8784;50.94667800;7.08448400;2022-12-07T14:14:05;8.80;99.90
17333;DHT22;8784;50.94667800;7.08448400;2022-12-07T14:16:33;8.80;99.90
17333;DHT22;8784;50.94667800;7.08448400;2022-12-07T14:19:04;8.80;99.90